sensor_id;sensor_type;location;lat;lon;timestamp;P1;durP1;ratioP1;P2;durP2;ratioP2
3307;SDS011;1666;48.898;9.182;2024-01-06T00:02:10;8.55;;;5.50;;
3307;SDS011;1666;48.898;9.182;2024-01-06T00:04:40;10.07;;;5.15;;
3307;SDS011;1666;48.898;9.182;2024-01-06T00:07:11;7.28;;;5.03;;
3307;SDS011;1666;48.898;9.182;2024-01-06T00:09:41;10.75;;;5.63;;
3307;SDS011;1666;48.898;9.182;2024-01-06T00:12:11;8.52;;;5.40;;
3307;SDS011;1666;48.898;9.182;2024-01-06T00:14:41;8.98;;;5.10;;
3307;SDS011;1666;48.898;9.182;2024-01-06T00:17:15;7.63;;;4.95;;
3307;SDS011;1666;48.898;9.182;2024-01-06T00:19:45;9.02;;;3.90;;
3307;SDS011;1666;48.898;9.182;2024-01-06T00:22:18;7.75;;;4.53;;
3307;SDS011;1666;48.898;9.182;2024-01-06T00:24:48;7.38;;;3.97;;
3307;SDS011;1666;48.898;9.182;2024-01-06T00:27:18;7.93;;;4.13;;
3307;SDS011;1666;48.898;9.182;2024-01-06T00:29:48;6.82;;;3.90;;
3307;SDS011;1666;48.898;9.182;2024-01-06T00:32:21;6.72;;;3.83;;
3307;SDS011;1666;48.898;9.182;2024-01-06T00:34:51;6.20;;;3.60;;
3307;SDS011;1666;48.898;9.182;2024-01-06T00:37:21;6.65;;;3.78;;
3307;SDS011;1666;48.898;9.182;2024-01-06T00:39:51;10.32;;;4.35;;
3307;SDS011;1666;48.898;9.182;2024-01-06T00:42:21;7.45;;;4.22;;
3307;SDS011;1666;48.898;9.182;2024-01-06T00:44:51;7.13;;;4.20;;
3307;SDS011;1666;48.898;9.182;2024-01-06T00:47:23;5.65;;;3.90;;
3307;SDS011;1666;48.898;9.182;2024-01-06T00:49:53;5.32;;;3.92;;
3307;SDS011;1666;48.898;9.182;2024-01-06T00:52:24;10.48;;;4.18;;
3307;SDS011;1666;48.898;9.182;2024-01-06T00:54:55;5.93;;;3.85;;
3307;SDS011;1666;48.898;9.182;2024-01-06T00:57:31;6.90;;;3.70;;
3307;SDS011;1666;48.898;9.182;2024-01-06T01:00:08;9.18;;;3.95;;
3307;SDS011;1666;48.898;9.182;2024-01-06T01:02:42;6.68;;;2.97;;
3307;SDS011;1666;48.898;9.182;2024-01-06T01:05:14;7.88;;;3.17;;
3307;SDS011;1666;48.898;9.182;2024-01-06T01:07:45;4.85;;;3.03;;
3307;SDS011;1666;48.898;9.182;2024-01-06T01:10:15;6.07;;;2.83;;
3307;SDS011;1666;48.898;9.182;2024-01-06T01:12:45;6.28;;;2.97;;
3307;SDS011;1666;48.898;9.182;2024-01-06T01:15:15;6.40;;;2.50;;
3307;SDS011;1666;48.898;9.182;2024-01-06T01:17:47;4.30;;;2.20;;
3307;SDS011;1666;48.898;9.182;2024-01-06T01:20:18;5.78;;;2.20;;
3307;SDS011;1666;48.898;9.182;2024-01-06T01:22:48;5.45;;;2.08;;
3307;SDS011;1666;48.898;9.182;2024-01-06T01:25:17;5.28;;;2.40;;
3307;SDS011;1666;48.898;9.182;2024-01-06T01:27:48;5.22;;;2.35;;
3307;SDS011;1666;48.898;9.182;2024-01-06T01:30:18;5.65;;;2.58;;
3307;SDS011;1666;48.898;9.182;2024-01-06T01:32:51;3.92;;;1.88;;
3307;SDS011;1666;48.898;9.182;2024-01-06T01:35:21;4.90;;;2.30;;
3307;SDS011;1666;48.898;9.182;2024-01-06T01:37:51;5.35;;;2.50;;
3307;SDS011;1666;48.898;9.182;2024-01-06T01:40:21;6.00;;;2.05;;
3307;SDS011;1666;48.898;9.182;2024-01-06T01:42:51;5.90;;;2.30;;
3307;SDS011;1666;48.898;9.182;2024-01-06T01:45:21;4.90;;;2.20;;
3307;SDS011;1666;48.898;9.182;2024-01-06T01:47:54;5.10;;;2.25;;
3307;SDS011;1666;48.898;9.182;2024-01-06T01:50:24;7.45;;;2.47;;
3307;SDS011;1666;48.898;9.182;2024-01-06T01:52:57;4.47;;;2.42;;
3307;SDS011;1666;48.898;9.182;2024-01-06T01:55:28;7.28;;;2.22;;
3307;SDS011;1666;48.898;9.182;2024-01-06T01:57:58;5.22;;;2.00;;
3307;SDS011;1666;48.898;9.182;2024-01-06T02:00:28;5.95;;;1.98;;
3307;SDS011;1666;48.898;9.182;2024-01-06T02:03:01;3.40;;;1.70;;
3307;SDS011;1666;48.898;9.182;2024-01-06T02:05:33;3.83;;;1.77;;
3307;SDS011;1666;48.898;9.182;2024-01-06T02:08:04;7.53;;;1.98;;
3307;SDS011;1666;48.898;9.182;2024-01-06T02:10:35;7.50;;;2.25;;
3307;SDS011;1666;48.898;9.182;2024-01-06T02:13:09;6.95;;;2.20;;
3307;SDS011;1666;48.898;9.182;2024-01-06T02:15:39;6.95;;;1.90;;
3307;SDS011;1666;48.898;9.182;2024-01-06T02:18:12;7.18;;;2.22;;
3307;SDS011;1666;48.898;9.182;2024-01-06T02:20:43;6.07;;;1.73;;
3307;SDS011;1666;48.898;9.182;2024-01-06T02:23:16;5.68;;;1.70;;
3307;SDS011;1666;48.898;9.182;2024-01-06T02:25:46;4.40;;;1.67;;
3307;SDS011;1666;48.898;9.182;2024-01-06T02:28:16;5.88;;;1.98;;
3307;SDS011;1666;48.898;9.182;2024-01-06T02:30:46;13.82;;;2.28;;
3307;SDS011;1666;48.898;9.182;2024-01-06T02:33:17;7.15;;;1.90;;
3307;SDS011;1666;48.898;9.182;2024-01-06T02:35:50;7.38;;;2.22;;
3307;SDS011;1666;48.898;9.182;2024-01-06T02:38:24;4.47;;;1.67;;
3307;SDS011;1666;48.898;9.182;2024-01-06T02:40:54;7.38;;;1.98;;
3307;SDS011;1666;48.898;9.182;2024-01-06T02:43:24;7.15;;;2.53;;
3307;SDS011;1666;48.898;9.182;2024-01-06T02:45:54;6.70;;;2.13;;
3307;SDS011;1666;48.898;9.182;2024-01-06T02:48:24;3.85;;;2.15;;
3307;SDS011;1666;48.898;9.182;2024-01-06T02:50:56;6.43;;;1.75;;
3307;SDS011;1666;48.898;9.182;2024-01-06T02:53:29;9.98;;;1.90;;
3307;SDS011;1666;48.898;9.182;2024-01-06T02:55:59;6.13;;;1.70;;
3307;SDS011;1666;48.898;9.182;2024-01-06T02:58:29;8.68;;;2.22;;
3307;SDS011;1666;48.898;9.182;2024-01-06T03:00:59;5.57;;;1.50;;
3307;SDS011;1666;48.898;9.182;2024-01-06T03:03:30;3.90;;;1.55;;
3307;SDS011;1666;48.898;9.182;2024-01-06T03:06:00;5.78;;;1.58;;
3307;SDS011;1666;48.898;9.182;2024-01-06T03:08:32;5.90;;;1.83;;
3307;SDS011;1666;48.898;9.182;2024-01-06T03:11:03;6.55;;;1.50;;
3307;SDS011;1666;48.898;9.182;2024-01-06T03:13:33;4.47;;;1.65;;
3307;SDS011;1666;48.898;9.182;2024-01-06T03:16:04;6.95;;;1.83;;
3307;SDS011;1666;48.898;9.182;2024-01-06T03:18:34;3.55;;;1.70;;
3307;SDS011;1666;48.898;9.182;2024-01-06T03:21:05;6.00;;;1.52;;
3307;SDS011;1666;48.898;9.182;2024-01-06T03:23:51;8.30;;;1.80;;
3307;SDS011;1666;48.898;9.182;2024-01-06T03:26:21;8.32;;;1.80;;
3307;SDS011;1666;48.898;9.182;2024-01-06T03:28:51;2.83;;;1.30;;
3307;SDS011;1666;48.898;9.182;2024-01-06T03:31:25;4.22;;;1.30;;
3307;SDS011;1666;48.898;9.182;2024-01-06T03:33:55;5.70;;;1.85;;
3307;SDS011;1666;48.898;9.182;2024-01-06T03:36:25;4.93;;;1.50;;
3307;SDS011;1666;48.898;9.182;2024-01-06T03:38:58;2.88;;;1.40;;
3307;SDS011;1666;48.898;9.182;2024-01-06T03:41:28;3.40;;;1.48;;
3307;SDS011;1666;48.898;9.182;2024-01-06T03:43:58;3.80;;;1.48;;
3307;SDS011;1666;48.898;9.182;2024-01-06T03:46:29;5.85;;;1.40;;
3307;SDS011;1666;48.898;9.182;2024-01-06T03:48:59;5.65;;;1.70;;
3307;SDS011;1666;48.898;9.182;2024-01-06T03:51:29;8.32;;;2.15;;
3307;SDS011;1666;48.898;9.182;2024-01-06T03:54:02;7.88;;;1.67;;
3307;SDS011;1666;48.898;9.182;2024-01-06T03:56:32;5.72;;;1.60;;
3307;SDS011;1666;48.898;9.182;2024-01-06T03:59:02;7.60;;;1.90;;
3307;SDS011;1666;48.898;9.182;2024-01-06T04:01:32;6.45;;;1.90;;
3307;SDS011;1666;48.898;9.182;2024-01-06T04:04:02;2.15;;;1.70;;
3307;SDS011;1666;48.898;9.182;2024-01-06T04:06:33;5.82;;;2.08;;
3307;SDS011;1666;48.898;9.182;2024-01-06T04:09:05;7.22;;;1.85;;
3307;SDS011;1666;48.898;9.182;2024-01-06T04:11:36;6.90;;;1.95;;
3307;SDS011;1666;48.898;9.182;2024-01-06T04:14:06;4.88;;;1.90;;
3307;SDS011;1666;48.898;9.182;2024-01-06T04:16:36;6.05;;;2.00;;
3307;SDS011;1666;48.898;9.182;2024-01-06T04:19:06;10.88;;;2.17;;
3307;SDS011;1666;48.898;9.182;2024-01-06T04:21:38;6.10;;;1.88;;
3307;SDS011;1666;48.898;9.182;2024-01-06T04:24:10;7.63;;;1.42;;
3307;SDS011;1666;48.898;9.182;2024-01-06T04:26:40;5.95;;;1.80;;
3307;SDS011;1666;48.898;9.182;2024-01-06T04:29:11;6.45;;;2.05;;
3307;SDS011;1666;48.898;9.182;2024-01-06T04:31:41;5.60;;;1.60;;
3307;SDS011;1666;48.898;9.182;2024-01-06T04:34:11;5.18;;;1.58;;
3307;SDS011;1666;48.898;9.182;2024-01-06T04:36:41;5.57;;;1.80;;
3307;SDS011;1666;48.898;9.182;2024-01-06T04:39:14;7.57;;;2.00;;
3307;SDS011;1666;48.898;9.182;2024-01-06T04:41:44;8.00;;;2.40;;
3307;SDS011;1666;48.898;9.182;2024-01-06T04:44:14;8.55;;;2.03;;
3307;SDS011;1666;48.898;9.182;2024-01-06T04:46:44;5.53;;;1.92;;
3307;SDS011;1666;48.898;9.182;2024-01-06T04:49:14;7.07;;;2.10;;
3307;SDS011;1666;48.898;9.182;2024-01-06T04:51:44;8.23;;;2.10;;
3307;SDS011;1666;48.898;9.182;2024-01-06T04:54:17;4.72;;;1.90;;
3307;SDS011;1666;48.898;9.182;2024-01-06T04:56:47;7.88;;;2.08;;
3307;SDS011;1666;48.898;9.182;2024-01-06T04:59:17;4.65;;;1.92;;
3307;SDS011;1666;48.898;9.182;2024-01-06T05:01:47;4.22;;;1.92;;
3307;SDS011;1666;48.898;9.182;2024-01-06T05:04:18;6.28;;;1.80;;
3307;SDS011;1666;48.898;9.182;2024-01-06T05:06:48;7.97;;;2.47;;
3307;SDS011;1666;48.898;9.182;2024-01-06T05:09:21;4.30;;;1.70;;
3307;SDS011;1666;48.898;9.182;2024-01-06T05:11:51;6.07;;;2.13;;
3307;SDS011;1666;48.898;9.182;2024-01-06T05:14:21;5.75;;;2.88;;
3307;SDS011;1666;48.898;9.182;2024-01-06T05:16:51;6.95;;;2.30;;
3307;SDS011;1666;48.898;9.182;2024-01-06T05:19:21;3.30;;;1.70;;
3307;SDS011;1666;48.898;9.182;2024-01-06T05:21:52;6.85;;;2.40;;
3307;SDS011;1666;48.898;9.182;2024-01-06T05:24:25;4.40;;;2.10;;
3307;SDS011;1666;48.898;9.182;2024-01-06T05:26:55;11.60;;;2.75;;
3307;SDS011;1666;48.898;9.182;2024-01-06T05:29:25;5.85;;;2.75;;
3307;SDS011;1666;48.898;9.182;2024-01-06T05:31:55;6.53;;;2.70;;
3307;SDS011;1666;48.898;9.182;2024-01-06T05:34:25;6.53;;;3.13;;
3307;SDS011;1666;48.898;9.182;2024-01-06T05:36:55;7.18;;;3.30;;
3307;SDS011;1666;48.898;9.182;2024-01-06T05:39:28;6.78;;;2.80;;
3307;SDS011;1666;48.898;9.182;2024-01-06T05:41:58;6.05;;;2.13;;
3307;SDS011;1666;48.898;9.182;2024-01-06T05:44:28;4.82;;;2.63;;
3307;SDS011;1666;48.898;9.182;2024-01-06T05:46:58;6.00;;;2.50;;
3307;SDS011;1666;48.898;9.182;2024-01-06T05:49:28;8.45;;;2.90;;
3307;SDS011;1666;48.898;9.182;2024-01-06T05:51:58;6.57;;;2.58;;
3307;SDS011;1666;48.898;9.182;2024-01-06T05:54:30;8.57;;;3.05;;
3307;SDS011;1666;48.898;9.182;2024-01-06T05:57:00;7.00;;;2.95;;
3307;SDS011;1666;48.898;9.182;2024-01-06T05:59:32;10.95;;;3.58;;
3307;SDS011;1666;48.898;9.182;2024-01-06T06:02:02;10.25;;;3.72;;
3307;SDS011;1666;48.898;9.182;2024-01-06T06:04:32;6.65;;;3.38;;
3307;SDS011;1666;48.898;9.182;2024-01-06T06:07:03;7.20;;;2.80;;
3307;SDS011;1666;48.898;9.182;2024-01-06T06:09:36;9.32;;;3.03;;
3307;SDS011;1666;48.898;9.182;2024-01-06T06:12:07;6.80;;;2.78;;
3307;SDS011;1666;48.898;9.182;2024-01-06T06:14:37;14.07;;;3.13;;
3307;SDS011;1666;48.898;9.182;2024-01-06T06:17:07;8.73;;;2.95;;
3307;SDS011;1666;48.898;9.182;2024-01-06T06:19:37;12.63;;;2.80;;
3307;SDS011;1666;48.898;9.182;2024-01-06T06:22:07;11.50;;;3.10;;
3307;SDS011;1666;48.898;9.182;2024-01-06T06:24:40;8.27;;;2.85;;
3307;SDS011;1666;48.898;9.182;2024-01-06T06:27:10;7.85;;;3.30;;
3307;SDS011;1666;48.898;9.182;2024-01-06T06:29:40;8.68;;;3.35;;
3307;SDS011;1666;48.898;9.182;2024-01-06T06:32:10;6.40;;;3.05;;
3307;SDS011;1666;48.898;9.182;2024-01-06T06:34:40;8.75;;;2.90;;
3307;SDS011;1666;48.898;9.182;2024-01-06T06:37:10;15.32;;;3.70;;
3307;SDS011;1666;48.898;9.182;2024-01-06T06:39:42;6.57;;;2.90;;
3307;SDS011;1666;48.898;9.182;2024-01-06T06:42:13;4.20;;;2.65;;
3307;SDS011;1666;48.898;9.182;2024-01-06T06:44:43;4.15;;;2.70;;
3307;SDS011;1666;48.898;9.182;2024-01-06T06:47:13;5.60;;;2.90;;
3307;SDS011;1666;48.898;9.182;2024-01-06T06:49:43;8.43;;;3.15;;
3307;SDS011;1666;48.898;9.182;2024-01-06T06:52:13;6.40;;;3.33;;
3307;SDS011;1666;48.898;9.182;2024-01-06T06:54:46;4.47;;;3.10;;
3307;SDS011;1666;48.898;9.182;2024-01-06T06:57:16;5.25;;;2.70;;
3307;SDS011;1666;48.898;9.182;2024-01-06T06:59:46;4.97;;;2.92;;
3307;SDS011;1666;48.898;9.182;2024-01-06T07:02:16;4.32;;;2.70;;
3307;SDS011;1666;48.898;9.182;2024-01-06T07:04:46;5.30;;;3.05;;
3307;SDS011;1666;48.898;9.182;2024-01-06T07:07:16;6.30;;;3.10;;
3307;SDS011;1666;48.898;9.182;2024-01-06T07:09:48;5.43;;;2.83;;
3307;SDS011;1666;48.898;9.182;2024-01-06T07:12:18;5.28;;;3.10;;
3307;SDS011;1666;48.898;9.182;2024-01-06T07:14:48;3.25;;;2.75;;
3307;SDS011;1666;48.898;9.182;2024-01-06T07:17:18;5.97;;;3.10;;
3307;SDS011;1666;48.898;9.182;2024-01-06T07:19:48;6.60;;;3.60;;
3307;SDS011;1666;48.898;9.182;2024-01-06T07:22:19;4.13;;;2.70;;
3307;SDS011;1666;48.898;9.182;2024-01-06T07:24:51;4.82;;;2.70;;
3307;SDS011;1666;48.898;9.182;2024-01-06T07:27:22;4.47;;;2.75;;
3307;SDS011;1666;48.898;9.182;2024-01-06T07:29:52;4.30;;;2.92;;
3307;SDS011;1666;48.898;9.182;2024-01-06T07:32:22;5.25;;;2.88;;
3307;SDS011;1666;48.898;9.182;2024-01-06T07:34:52;6.20;;;3.20;;
3307;SDS011;1666;48.898;9.182;2024-01-06T07:37:22;4.97;;;3.08;;
3307;SDS011;1666;48.898;9.182;2024-01-06T07:39:55;5.78;;;2.85;;
3307;SDS011;1666;48.898;9.182;2024-01-06T07:42:25;4.57;;;3.13;;
3307;SDS011;1666;48.898;9.182;2024-01-06T07:44:55;3.83;;;2.83;;
3307;SDS011;1666;48.898;9.182;2024-01-06T07:47:25;4.57;;;2.95;;
3307;SDS011;1666;48.898;9.182;2024-01-06T07:49:55;3.30;;;2.75;;
3307;SDS011;1666;48.898;9.182;2024-01-06T07:52:26;6.30;;;3.10;;
3307;SDS011;1666;48.898;9.182;2024-01-06T07:54:59;4.90;;;2.88;;
3307;SDS011;1666;48.898;9.182;2024-01-06T07:57:30;4.28;;;3.17;;
3307;SDS011;1666;48.898;9.182;2024-01-06T08:00:00;5.25;;;3.28;;
3307;SDS011;1666;48.898;9.182;2024-01-06T08:02:37;4.55;;;3.38;;
3307;SDS011;1666;48.898;9.182;2024-01-06T08:05:07;4.45;;;3.60;;
3307;SDS011;1666;48.898;9.182;2024-01-06T08:07:38;6.68;;;3.40;;
3307;SDS011;1666;48.898;9.182;2024-01-06T08:10:11;4.35;;;3.15;;
3307;SDS011;1666;48.898;9.182;2024-01-06T08:12:41;5.07;;;2.90;;
3307;SDS011;1666;48.898;9.182;2024-01-06T08:15:11;4.95;;;3.17;;
3307;SDS011;1666;48.898;9.182;2024-01-06T08:17:41;5.70;;;2.95;;
3307;SDS011;1666;48.898;9.182;2024-01-06T08:20:11;3.95;;;3.15;;
3307;SDS011;1666;48.898;9.182;2024-01-06T08:22:41;4.47;;;3.10;;
3307;SDS011;1666;48.898;9.182;2024-01-06T08:25:14;3.88;;;2.83;;
3307;SDS011;1666;48.898;9.182;2024-01-06T08:27:44;5.10;;;3.08;;
3307;SDS011;1666;48.898;9.182;2024-01-06T08:30:14;3.45;;;3.15;;
3307;SDS011;1666;48.898;9.182;2024-01-06T08:32:44;5.07;;;3.22;;
3307;SDS011;1666;48.898;9.182;2024-01-06T08:35:14;5.60;;;2.83;;
3307;SDS011;1666;48.898;9.182;2024-01-06T08:37:46;5.53;;;3.42;;
3307;SDS011;1666;48.898;9.182;2024-01-06T08:40:18;3.38;;;2.97;;
3307;SDS011;1666;48.898;9.182;2024-01-06T08:42:48;3.92;;;2.50;;
3307;SDS011;1666;48.898;9.182;2024-01-06T08:45:18;3.85;;;2.55;;
3307;SDS011;1666;48.898;9.182;2024-01-06T08:47:49;4.03;;;2.92;;
3307;SDS011;1666;48.898;9.182;2024-01-06T08:50:19;3.63;;;2.78;;
3307;SDS011;1666;48.898;9.182;2024-01-06T08:52:49;3.80;;;2.92;;
3307;SDS011;1666;48.898;9.182;2024-01-06T08:55:22;5.63;;;3.50;;
3307;SDS011;1666;48.898;9.182;2024-01-06T08:57:52;4.25;;;3.15;;
3307;SDS011;1666;48.898;9.182;2024-01-06T09:00:23;4.25;;;3.55;;
3307;SDS011;1666;48.898;9.182;2024-01-06T09:02:53;4.45;;;3.75;;
3307;SDS011;1666;48.898;9.182;2024-01-06T09:05:23;4.00;;;3.65;;
3307;SDS011;1666;48.898;9.182;2024-01-06T09:07:53;4.18;;;3.67;;
3307;SDS011;1666;48.898;9.182;2024-01-06T09:10:26;5.15;;;4.65;;
3307;SDS011;1666;48.898;9.182;2024-01-06T09:12:56;8.05;;;4.07;;
3307;SDS011;1666;48.898;9.182;2024-01-06T09:15:26;6.57;;;4.75;;
3307;SDS011;1666;48.898;9.182;2024-01-06T09:17:57;7.57;;;5.07;;
3307;SDS011;1666;48.898;9.182;2024-01-06T09:20:27;6.03;;;4.60;;
3307;SDS011;1666;48.898;9.182;2024-01-06T09:22:57;8.95;;;4.40;;
3307;SDS011;1666;48.898;9.182;2024-01-06T09:25:30;5.32;;;3.85;;
3307;SDS011;1666;48.898;9.182;2024-01-06T09:28:01;3.60;;;3.03;;
3307;SDS011;1666;48.898;9.182;2024-01-06T09:30:32;4.63;;;3.15;;
3307;SDS011;1666;48.898;9.182;2024-01-06T09:33:04;5.72;;;3.72;;
3307;SDS011;1666;48.898;9.182;2024-01-06T09:35:34;6.57;;;3.50;;
3307;SDS011;1666;48.898;9.182;2024-01-06T09:38:04;4.90;;;3.92;;
3307;SDS011;1666;48.898;9.182;2024-01-06T09:40:40;6.97;;;4.15;;
3307;SDS011;1666;48.898;9.182;2024-01-06T09:43:12;3.47;;;2.95;;
3307;SDS011;1666;48.898;9.182;2024-01-06T09:45:42;3.90;;;3.40;;
3307;SDS011;1666;48.898;9.182;2024-01-06T09:48:16;5.78;;;3.97;;
3307;SDS011;1666;48.898;9.182;2024-01-06T09:50:47;3.42;;;3.13;;
3307;SDS011;1666;48.898;9.182;2024-01-06T09:53:19;4.88;;;3.53;;
3307;SDS011;1666;48.898;9.182;2024-01-06T09:55:51;4.25;;;3.28;;
3307;SDS011;1666;48.898;9.182;2024-01-06T09:58:22;4.53;;;3.30;;
3307;SDS011;1666;48.898;9.182;2024-01-06T10:00:56;5.35;;;3.67;;
3307;SDS011;1666;48.898;9.182;2024-01-06T10:03:27;4.25;;;3.13;;
3307;SDS011;1666;48.898;9.182;2024-01-06T10:05:57;5.40;;;3.47;;
3307;SDS011;1666;48.898;9.182;2024-01-06T10:08:30;4.97;;;3.90;;
3307;SDS011;1666;48.898;9.182;2024-01-06T10:11:04;6.15;;;3.67;;
3307;SDS011;1666;48.898;9.182;2024-01-06T10:13:34;4.70;;;3.75;;
3307;SDS011;1666;48.898;9.182;2024-01-06T10:16:05;5.15;;;3.92;;
3307;SDS011;1666;48.898;9.182;2024-01-06T10:18:35;4.90;;;3.88;;
3307;SDS011;1666;48.898;9.182;2024-01-06T10:21:06;6.00;;;3.95;;
3307;SDS011;1666;48.898;9.182;2024-01-06T10:23:36;5.88;;;3.70;;
3307;SDS011;1666;48.898;9.182;2024-01-06T10:26:11;4.45;;;3.67;;
3307;SDS011;1666;48.898;9.182;2024-01-06T10:31:13;3.67;;;3.20;;
3307;SDS011;1666;48.898;9.182;2024-01-06T10:33:47;7.07;;;4.00;;
3307;SDS011;1666;48.898;9.182;2024-01-06T10:36:18;4.60;;;3.75;;
3307;SDS011;1666;48.898;9.182;2024-01-06T10:38:50;4.57;;;3.63;;
3307;SDS011;1666;48.898;9.182;2024-01-06T10:41:25;4.43;;;4.03;;
3307;SDS011;1666;48.898;9.182;2024-01-06T10:43:56;7.05;;;4.18;;
3307;SDS011;1666;48.898;9.182;2024-01-06T10:46:29;7.57;;;4.03;;
3307;SDS011;1666;48.898;9.182;2024-01-06T10:49:01;5.18;;;3.80;;
3307;SDS011;1666;48.898;9.182;2024-01-06T10:51:32;6.22;;;4.50;;
3307;SDS011;1666;48.898;9.182;2024-01-06T10:54:06;6.88;;;4.90;;
3307;SDS011;1666;48.898;9.182;2024-01-06T10:56:41;6.57;;;4.68;;
3307;SDS011;1666;48.898;9.182;2024-01-06T10:59:12;5.60;;;4.55;;
3307;SDS011;1666;48.898;9.182;2024-01-06T11:01:44;6.00;;;4.70;;
3307;SDS011;1666;48.898;9.182;2024-01-06T11:04:16;6.22;;;4.97;;
3307;SDS011;1666;48.898;9.182;2024-01-06T11:06:46;5.75;;;4.85;;
3307;SDS011;1666;48.898;9.182;2024-01-06T11:09:18;8.27;;;6.07;;
3307;SDS011;1666;48.898;9.182;2024-01-06T11:11:54;8.20;;;5.45;;
3307;SDS011;1666;48.898;9.182;2024-01-06T11:14:25;7.30;;;6.10;;
3307;SDS011;1666;48.898;9.182;2024-01-06T11:19:42;7.50;;;5.75;;
3307;SDS011;1666;48.898;9.182;2024-01-06T11:22:21;9.55;;;6.32;;
3307;SDS011;1666;48.898;9.182;2024-01-06T11:25:03;8.25;;;5.53;;
3307;SDS011;1666;48.898;9.182;2024-01-06T11:27:37;9.57;;;5.97;;
3307;SDS011;1666;48.898;9.182;2024-01-06T11:30:07;5.93;;;5.32;;
3307;SDS011;1666;48.898;9.182;2024-01-06T11:32:48;6.28;;;5.38;;
3307;SDS011;1666;48.898;9.182;2024-01-06T11:35:20;5.50;;;4.55;;
3307;SDS011;1666;48.898;9.182;2024-01-06T11:37:51;6.38;;;5.32;;
3307;SDS011;1666;48.898;9.182;2024-01-06T11:40:33;7.00;;;5.30;;
3307;SDS011;1666;48.898;9.182;2024-01-06T11:43:07;7.80;;;4.90;;
3307;SDS011;1666;48.898;9.182;2024-01-06T11:48:11;7.70;;;5.07;;
3307;SDS011;1666;48.898;9.182;2024-01-06T11:50:41;7.00;;;5.45;;
3307;SDS011;1666;48.898;9.182;2024-01-06T11:53:11;9.45;;;5.82;;
3307;SDS011;1666;48.898;9.182;2024-01-06T11:55:42;6.82;;;5.57;;
3307;SDS011;1666;48.898;9.182;2024-01-06T11:58:15;6.85;;;5.55;;
3307;SDS011;1666;48.898;9.182;2024-01-06T12:00:54;8.40;;;5.80;;
3307;SDS011;1666;48.898;9.182;2024-01-06T12:03:25;7.13;;;5.35;;
3307;SDS011;1666;48.898;9.182;2024-01-06T12:06:00;8.20;;;5.70;;
3307;SDS011;1666;48.898;9.182;2024-01-06T12:08:31;6.38;;;5.55;;
3307;SDS011;1666;48.898;9.182;2024-01-06T12:11:01;8.02;;;5.35;;
3307;SDS011;1666;48.898;9.182;2024-01-06T12:13:34;8.48;;;5.75;;
3307;SDS011;1666;48.898;9.182;2024-01-06T12:16:05;8.77;;;6.60;;
3307;SDS011;1666;48.898;9.182;2024-01-06T12:18:36;8.15;;;6.28;;
3307;SDS011;1666;48.898;9.182;2024-01-06T12:21:06;7.32;;;5.97;;
3307;SDS011;1666;48.898;9.182;2024-01-06T12:23:37;9.27;;;6.60;;
3307;SDS011;1666;48.898;9.182;2024-01-06T12:26:07;9.57;;;7.00;;
3307;SDS011;1666;48.898;9.182;2024-01-06T12:28:39;8.32;;;6.40;;
3307;SDS011;1666;48.898;9.182;2024-01-06T12:31:09;8.48;;;5.72;;
3307;SDS011;1666;48.898;9.182;2024-01-06T12:33:40;8.40;;;5.78;;
3307;SDS011;1666;48.898;9.182;2024-01-06T12:36:10;8.50;;;5.78;;
3307;SDS011;1666;48.898;9.182;2024-01-06T12:38:52;8.00;;;5.95;;
3307;SDS011;1666;48.898;9.182;2024-01-06T12:41:23;7.45;;;6.13;;
3307;SDS011;1666;48.898;9.182;2024-01-06T12:43:55;10.07;;;6.45;;
3307;SDS011;1666;48.898;9.182;2024-01-06T12:46:25;8.77;;;6.47;;
3307;SDS011;1666;48.898;9.182;2024-01-06T12:48:56;10.15;;;6.47;;
3307;SDS011;1666;48.898;9.182;2024-01-06T12:51:26;8.95;;;6.57;;
3307;SDS011;1666;48.898;9.182;2024-01-06T12:53:56;10.90;;;6.85;;
3307;SDS011;1666;48.898;9.182;2024-01-06T12:56:27;10.88;;;7.28;;
3307;SDS011;1666;48.898;9.182;2024-01-06T12:58:59;12.02;;;7.45;;
3307;SDS011;1666;48.898;9.182;2024-01-06T13:01:30;8.43;;;6.82;;
3307;SDS011;1666;48.898;9.182;2024-01-06T13:04:00;12.98;;;8.10;;
3307;SDS011;1666;48.898;9.182;2024-01-06T13:06:30;9.73;;;7.43;;
3307;SDS011;1666;48.898;9.182;2024-01-06T13:09:01;9.68;;;7.85;;
3307;SDS011;1666;48.898;9.182;2024-01-06T13:11:33;10.77;;;7.70;;
3307;SDS011;1666;48.898;9.182;2024-01-06T13:14:07;11.95;;;7.95;;
3307;SDS011;1666;48.898;9.182;2024-01-06T13:16:37;11.02;;;7.57;;
3307;SDS011;1666;48.898;9.182;2024-01-06T13:19:07;11.05;;;7.80;;
3307;SDS011;1666;48.898;9.182;2024-01-06T13:21:37;9.45;;;7.40;;
3307;SDS011;1666;48.898;9.182;2024-01-06T13:24:08;11.13;;;8.50;;
3307;SDS011;1666;48.898;9.182;2024-01-06T13:26:39;9.88;;;7.65;;
3307;SDS011;1666;48.898;9.182;2024-01-06T13:29:11;12.20;;;7.50;;
3307;SDS011;1666;48.898;9.182;2024-01-06T13:31:41;10.80;;;8.40;;
3307;SDS011;1666;48.898;9.182;2024-01-06T13:34:12;11.75;;;8.80;;
3307;SDS011;1666;48.898;9.182;2024-01-06T13:36:42;12.45;;;8.60;;
3307;SDS011;1666;48.898;9.182;2024-01-06T13:39:13;12.77;;;8.63;;
3307;SDS011;1666;48.898;9.182;2024-01-06T13:41:47;13.40;;;8.45;;
3307;SDS011;1666;48.898;9.182;2024-01-06T13:44:21;11.45;;;8.65;;
3307;SDS011;1666;48.898;9.182;2024-01-06T13:46:51;11.23;;;8.60;;
3307;SDS011;1666;48.898;9.182;2024-01-06T13:49:22;13.55;;;9.30;;
3307;SDS011;1666;48.898;9.182;2024-01-06T13:51:54;11.18;;;8.75;;
3307;SDS011;1666;48.898;9.182;2024-01-06T13:54:25;13.25;;;9.75;;
3307;SDS011;1666;48.898;9.182;2024-01-06T13:56:55;16.30;;;9.07;;
3307;SDS011;1666;48.898;9.182;2024-01-06T13:59:28;13.95;;;9.45;;
3307;SDS011;1666;48.898;9.182;2024-01-06T14:01:58;12.63;;;9.27;;
3307;SDS011;1666;48.898;9.182;2024-01-06T14:04:28;13.93;;;9.32;;
3307;SDS011;1666;48.898;9.182;2024-01-06T14:06:59;12.45;;;9.48;;
3307;SDS011;1666;48.898;9.182;2024-01-06T14:09:31;16.02;;;10.85;;
3307;SDS011;1666;48.898;9.182;2024-01-06T14:12:01;11.73;;;9.27;;
3307;SDS011;1666;48.898;9.182;2024-01-06T14:14:34;14.07;;;9.40;;
3307;SDS011;1666;48.898;9.182;2024-01-06T14:17:04;12.50;;;9.07;;
3307;SDS011;1666;48.898;9.182;2024-01-06T14:19:35;11.98;;;8.23;;
3307;SDS011;1666;48.898;9.182;2024-01-06T14:22:05;13.13;;;10.00;;
3307;SDS011;1666;48.898;9.182;2024-01-06T14:24:35;12.75;;;9.15;;
3307;SDS011;1666;48.898;9.182;2024-01-06T14:27:05;12.25;;;9.52;;
3307;SDS011;1666;48.898;9.182;2024-01-06T14:29:38;15.82;;;9.88;;
3307;SDS011;1666;48.898;9.182;2024-01-06T14:32:08;12.40;;;9.68;;
3307;SDS011;1666;48.898;9.182;2024-01-06T14:34:40;13.05;;;8.60;;
3307;SDS011;1666;48.898;9.182;2024-01-06T14:37:10;12.52;;;9.13;;
3307;SDS011;1666;48.898;9.182;2024-01-06T14:39:40;15.05;;;9.18;;
3307;SDS011;1666;48.898;9.182;2024-01-06T14:42:10;12.30;;;8.73;;
3307;SDS011;1666;48.898;9.182;2024-01-06T14:44:43;11.88;;;8.63;;
3307;SDS011;1666;48.898;9.182;2024-01-06T14:47:13;13.25;;;8.68;;
3307;SDS011;1666;48.898;9.182;2024-01-06T14:49:43;12.95;;;9.57;;
3307;SDS011;1666;48.898;9.182;2024-01-06T14:52:13;13.65;;;9.43;;
3307;SDS011;1666;48.898;9.182;2024-01-06T14:54:43;11.57;;;8.55;;
3307;SDS011;1666;48.898;9.182;2024-01-06T14:57:15;13.50;;;9.30;;
3307;SDS011;1666;48.898;9.182;2024-01-06T14:59:48;14.40;;;9.60;;
3307;SDS011;1666;48.898;9.182;2024-01-06T15:02:18;15.68;;;9.45;;
3307;SDS011;1666;48.898;9.182;2024-01-06T15:04:49;12.50;;;10.07;;
3307;SDS011;1666;48.898;9.182;2024-01-06T15:07:20;13.38;;;9.32;;
3307;SDS011;1666;48.898;9.182;2024-01-06T15:09:50;14.43;;;10.38;;
3307;SDS011;1666;48.898;9.182;2024-01-06T15:12:20;14.45;;;10.43;;
3307;SDS011;1666;48.898;9.182;2024-01-06T15:14:53;12.70;;;9.77;;
3307;SDS011;1666;48.898;9.182;2024-01-06T15:17:24;12.80;;;10.48;;
3307;SDS011;1666;48.898;9.182;2024-01-06T15:19:54;13.43;;;9.98;;
3307;SDS011;1666;48.898;9.182;2024-01-06T15:22:25;13.73;;;10.45;;
3307;SDS011;1666;48.898;9.182;2024-01-06T15:24:57;14.75;;;11.00;;
3307;SDS011;1666;48.898;9.182;2024-01-06T15:27:32;14.27;;;10.48;;
3307;SDS011;1666;48.898;9.182;2024-01-06T15:30:06;15.65;;;11.60;;
3307;SDS011;1666;48.898;9.182;2024-01-06T15:32:36;19.20;;;11.63;;
3307;SDS011;1666;48.898;9.182;2024-01-06T15:35:08;18.10;;;11.65;;
3307;SDS011;1666;48.898;9.182;2024-01-06T15:37:39;17.48;;;12.20;;
3307;SDS011;1666;48.898;9.182;2024-01-06T15:40:09;16.65;;;11.68;;
3307;SDS011;1666;48.898;9.182;2024-01-06T15:42:40;17.00;;;12.10;;
3307;SDS011;1666;48.898;9.182;2024-01-06T15:45:12;16.67;;;12.07;;